| Date | Time | Temp. (oF) | Dew Point (oF) | Rel. Hum. (%) | Press. (in.) | Wind Dir. | Wind Speed (mph) | Hourly Rainfall (in.) |
|
|---|---|---|---|---|---|---|---|---|---|
| 1 | 01/26 | 00:00 | 29 | 23 | 80 | 29.77 | S | 6 | 0.00 |
| 2 | 01/25 | 23:00 | 30 | 24 | 79 | 29.80 | S | 6 | 0.00 |
| 3 | 01/25 | 22:00 | 30 | 24 | 79 | 29.82 | SSE | 6 | 0.00 |
| 4 | 01/25 | 21:00 | 30 | 23 | 78 | 29.84 | SSE | 3 | 0.00 |
| 5 | 01/25 | 20:00 | 30 | 23 | 77 | 29.86 | SE | 5 | 0.00 |
| 6 | miss | miss | miss | miss | miss | miss | miss | miss | |
| 7 | 01/25 | 19:28 | 30 | 23 | 76 | 29.87 | SSE | 2 | 0.00 |
| 8 | miss | miss | miss | miss | miss | miss | miss | miss | |
| 9 | 01/25 | 19:26 | 30 | 23 | 76 | 29.87 | SSE | 2 | 0.00 |
| 10 | miss | miss | miss | miss | miss | miss | miss | miss | |
| 11 | 01/25 | 19:24 | 30 | 23 | 76 | 29.86 | SSE | 3 | 0.00 |
| 12 | miss | miss | miss | miss | miss | miss | miss | miss | |
| 13 | 01/25 | 19:22 | 30 | 23 | 77 | 29.86 | SSE | 3 | 0.00 |
| 14 | miss | miss | miss | miss | miss | miss | miss | miss | |
| 15 | 01/25 | 19:20 | 30 | 23 | 77 | 29.87 | SSE | 3 | 0.00 |
| 16 | miss | miss | miss | miss | miss | miss | miss | miss | |
| 17 | 01/25 | 19:18 | 30 | 23 | 77 | 29.87 | SSE | 3 | 0.00 |
| 18 | miss | miss | miss | miss | miss | miss | miss | miss | |
| 19 | 01/25 | 19:16 | 30 | 23 | 77 | 29.87 | SSE | 2 | 0.00 |
| 20 | miss | miss | miss | miss | miss | miss | miss | miss | |
| 21 | 01/25 | 19:14 | 30 | 23 | 77 | 29.87 | SSE | 1 | 0.00 |
| 22 | miss | miss | miss | miss | miss | miss | miss | miss | |
| 23 | 01/25 | 19:12 | 30 | 23 | 77 | 29.87 | SSE | 2 | 0.00 |
| 24 | miss | miss | miss | miss | miss | miss | miss | miss | |
| 25 | 01/25 | 19:10 | 30 | 23 | 77 | 29.87 | SSE | 3 | 0.00 |
| 26 | miss | miss | miss | miss | miss | miss | miss | miss | |
| 27 | 01/25 | 19:10 | 30 | 23 | 77 | 29.87 | SSE | 3 | 0.00 |
| 28 | miss | miss | miss | miss | miss | miss | miss | miss | |
| 29 | 01/25 | 19:10 | 30 | 23 | 77 | 29.87 | SSE | 3 | 0.00 |
| 30 | 01/25 | 19:00 | 30 | 23 | 77 | 29.86 | SSW | 2 | 0.00 |
| 31 | 01/25 | 18:00 | 31 | 23 | 72 | 29.86 | SSW | 1 | 0.00 |
| 32 | 01/25 | 17:00 | 32 | 23 | 71 | 29.86 | WNW | 1 | 0.00 |
| 33 | 01/25 | 16:00 | 32 | 22 | 68 | 29.86 | NW | 3 | 0.00 |
| 34 | 01/25 | 15:00 | 33 | 24 | 70 | 29.87 | NW | 2 | 0.00 |
| 35 | 01/25 | 14:00 | 32 | 23 | 70 | 29.88 | WNW | 9 | 0.00 |
| 36 | 01/25 | 13:00 | 32 | 24 | 74 | 29.90 | W | 10 | 0.00 |
| 37 | 01/25 | 12:00 | 31 | 23 | 74 | 29.93 | SSW | 5 | 0.00 |
| 38 | 01/25 | 11:00 | 30 | 23 | 76 | 29.96 | S | 5 | 0.00 |
| 39 | 01/25 | 10:00 | 29 | 23 | 78 | 29.96 | WNW | 5 | 0.01 |
| 40 | 01/25 | 09:00 | 27 | 21 | 80 | 29.96 | SSW | 4 | 0.01 |
| 41 | 01/25 | 08:00 | 26 | 20 | 81 | 29.94 | WNW | 9 | 0.01 |
| 42 | 01/25 | 07:00 | 25 | 20 | 82 | 29.93 | W | 8 | 0.01 |
| 43 | 01/25 | 06:00 | 24 | 19 | 82 | 29.92 | SSW | 5 | 0.02 |
| 44 | 01/25 | 05:00 | 24 | 19 | 82 | 29.91 | SW | 3 | 0.01 |
| 45 | 01/25 | 04:00 | 22 | 17 | 81 | 29.90 | W | 1 | 0.00 |
| 46 | 01/25 | 03:00 | 21 | 16 | 81 | 29.91 | WSW | 5 | 0.00 |
| 47 | 01/25 | 02:00 | 20 | 14 | 80 | 29.91 | NW | 5 | 0.00 |
| 48 | 01/25 | 01:00 | 20 | 14 | 80 | 29.90 | SW | 5 | 0.00 |
| 49 | 01/25 | 00:00 | 20 | 14 | 80 | 29.91 | SSW | 5 | -0.07 |
| 50 | 01/24 | 23:00 | 19 | 15 | 85 | 29.91 | WNW | 3 | 0.00 |
| 51 | 01/24 | 22:00 | 19 | 15 | 87 | 29.91 | SW | 3 | 0.00 |
| 52 | 01/24 | 21:00 | 19 | 16 | 89 | 29.92 | SW | 5 | 0.00 |
| 53 | miss | miss | miss | miss | miss | miss | miss | miss | |
| 54 | 01/24 | 20:20 | 19 | 15 | 87 | 29.93 | SSW | 4 | 0.00 |
| 55 | miss | miss | miss | miss | miss | miss | miss | miss | |
| 56 | 01/24 | 20:18 | 19 | 15 | 87 | 29.93 | WSW | 4 | 0.00 |
| 57 | miss | miss | miss | miss | miss | miss | miss | miss | |
| 58 | 01/24 | 20:16 | 19 | 15 | 87 | 29.93 | W | 4 | 0.00 |
| 59 | miss | miss | miss | miss | miss | miss | miss | miss | |
| 60 | 01/24 | 20:14 | 19 | 15 | 87 | 29.93 | SW | 2 | 0.00 |
| 61 | miss | miss | miss | miss | miss | miss | miss | miss | |
| 62 | 01/24 | 20:12 | 19 | 15 | 87 | 29.92 | SW | 3 | 0.00 |
| 63 | miss | miss | miss | miss | miss | miss | miss | miss | |
| 64 | 01/24 | 20:10 | 19 | 15 | 86 | 29.92 | WSW | 3 | 0.00 |
| 65 | miss | miss | miss | miss | miss | miss | miss | miss | |
| 66 | 01/24 | 20:08 | 19 | 15 | 86 | 29.93 | W | 3 | 0.00 |
| 67 | miss | miss | miss | miss | miss | miss | miss | miss | |
| 68 | 01/24 | 20:06 | 19 | 15 | 86 | 29.93 | WSW | 2 | 0.00 |
| 69 | miss | miss | miss | miss | miss | miss | miss | miss | |
| 70 | 01/24 | 20:04 | 19 | 15 | 86 | 29.92 | WSW | 2 | 0.00 |
| 71 | miss | miss | miss | miss | miss | miss | miss | miss | |
| 72 | 01/24 | 20:02 | 19 | 15 | 86 | 29.92 | SW | 3 | 0.00 |
| 73 | miss | miss | miss | miss | miss | miss | miss | miss | |
| 74 | 01/24 | 20:01 | 19 | 15 | 86 | 29.92 | WSW | 4 | 0.00 |
| 75 | miss | miss | miss | miss | miss | miss | miss | miss | |
| 76 | 01/24 | 20:01 | 19 | 15 | 86 | 29.92 | WSW | 4 | 0.00 |
| 77 | 01/24 | 20:00 | 19 | 15 | 86 | 29.92 | S | 3 | 0.01 |
| 78 | 01/24 | 19:00 | 19 | 15 | 85 | 29.92 | SW | 5 | 0.00 |
| 79 | 01/24 | 18:00 | 17 | 15 | 94 | 29.92 | S | 6 | 0.00 |
| 80 | 01/24 | 17:00 | 16 | 14 | 94 | 29.94 | SSW | 4 | 0.00 |
| 81 | 01/24 | 16:00 | 17 | 15 | 95 | 29.98 | SSW | 1 | 0.00 |
| 82 | 01/24 | 15:00 | 17 | 12 | 82 | 29.99 | SSW | 8 | 0.00 |
| 83 | 01/24 | 14:00 | 20 | 3 | 49 | 30.03 | WSW | 6 | 0.03 |
| 84 | 01/24 | 13:00 | 19 | 3 | 50 | 30.07 | SSW | 6 | 0.07 |
| 85 | 01/24 | 12:00 | 18 | 3 | 52 | 30.14 | SSW | 6 | 0.07 |
| 86 | 01/24 | 11:00 | 15 | 1 | 54 | 30.17 | SSW | 8 | 0.05 |
| 87 | 01/24 | 10:00 | 12 | 0 | 57 | 30.20 | SSW | 2 | 0.00 |
| 88 | 01/24 | 09:00 | 10 | 0 | 64 | 30.23 | WSW | 1 | 0.00 |
| 89 | 01/24 | 08:00 | 5 | -1 | 73 | 30.25 | W | 1 | 0.00 |
| 90 | 01/24 | 07:00 | 5 | -2 | 72 | 30.25 | W | 4 | 0.00 |
| 91 | 01/24 | 06:00 | 5 | -2 | 71 | 30.25 | WSW | 1 | 0.00 |
| 92 | 01/24 | 05:00 | 5 | -2 | 69 | 30.24 | WNW | 5 | 0.00 |
| 93 | 01/24 | 04:00 | 6 | -3 | 64 | 30.24 | WNW | 4 | 0.00 |
| 94 | 01/24 | 03:00 | 6 | -4 | 61 | 30.24 | WNW | 4 | 0.00 |
| 95 | 01/24 | 02:00 | 6 | -4 | 60 | 30.24 | NW | 7 | 0.00 |
| 96 | 01/24 | 01:00 | 7 | -5 | 57 | 30.24 | WNW | 4 | 0.00 |
| 97 | 01/24 | 00:00 | 9 | -4 | 54 | 30.24 | NW | 10 | -0.23 |